createdAt,value
2022-10-26T00:01:57.777Z,4.4
2022-10-26T00:07:09.107Z,2.5
2022-10-26T00:12:21.240Z,4.3
2022-10-26T00:17:34.341Z,6
2022-10-26T00:22:45.624Z,2.6
2022-10-26T00:27:58.385Z,7.8
2022-10-26T00:33:11.250Z,5
2022-10-26T00:43:41.421Z,3.4
2022-10-26T00:48:52.408Z,2.9
2022-10-26T00:59:23.870Z,3.5
2022-10-26T01:04:37.300Z,4.4
2022-10-26T01:09:48.694Z,3.9
2022-10-26T01:15:00.916Z,3.6
2022-10-26T01:20:12.268Z,5.6
2022-10-26T01:30:42.577Z,3.2
2022-10-26T01:35:54.036Z,3.8
2022-10-26T01:41:07.129Z,2.6
2022-10-26T01:57:06.342Z,8.5
2022-10-26T02:02:18.256Z,8.9
2022-10-26T02:07:27.860Z,4.9
2022-10-26T02:18:01.401Z,5.1
2022-10-26T02:23:12.330Z,2.8
2022-10-26T02:44:28.804Z,3.5
2022-10-26T02:55:03.332Z,4
2022-10-26T03:00:15.538Z,2.3
2022-10-26T03:05:28.691Z,6.6
2022-10-26T03:10:41.717Z,5.5
2022-10-26T03:15:51.257Z,4.8
2022-10-26T03:21:03.353Z,4.7
2022-10-26T03:26:15.815Z,3.1
2022-10-26T03:36:48.447Z,3.2
2022-10-26T03:42:00.844Z,3.5
2022-10-26T03:47:12.195Z,2.9
2022-10-26T03:52:22.381Z,2.6
2022-10-26T03:57:34.434Z,2.2
2022-10-26T04:02:47.013Z,2.3
2022-10-26T04:13:21.332Z,3.2
2022-10-26T04:18:31.911Z,2.5
2022-10-26T04:23:42.916Z,4.5
2022-10-26T04:28:53.111Z,5.2
2022-10-26T04:34:07.960Z,2
2022-10-26T04:44:42.407Z,5.1
2022-10-26T04:49:55.355Z,3.3
2022-10-26T04:55:05.183Z,3.1
2022-10-26T05:00:17.053Z,3.6
2022-10-26T05:05:28.096Z,8.7
2022-10-26T05:10:43.931Z,5.4
2022-10-26T05:15:50.917Z,4.5
2022-10-26T05:21:01.937Z,6.3
2022-10-26T05:36:57.397Z,5.1
2022-10-26T05:47:30.545Z,4.1
2022-10-26T05:58:05.717Z,3.2
2022-10-26T06:03:15.921Z,4.4
2022-10-26T06:08:27.628Z,2.8
2022-10-26T06:13:37.572Z,3.6
2022-10-26T06:24:11.094Z,2.6
2022-10-26T06:34:46.398Z,3.1
2022-10-26T06:45:20.224Z,3.6
2022-10-26T07:06:39.579Z,2.3
2022-10-26T07:17:10.694Z,2.8
2022-10-26T07:22:23.881Z,2.6
2022-10-26T07:27:38.105Z,5.7
2022-10-26T07:32:51.475Z,2.3
2022-10-26T07:53:55.509Z,2.4
2022-10-26T08:04:28.919Z,3.3
2022-10-26T08:09:40.839Z,5.1
2022-10-26T08:25:36.985Z,2.6
2022-10-26T08:30:48.440Z,5.2
2022-10-26T08:36:01.204Z,6.5
2022-10-26T08:41:12.115Z,4
2022-10-26T08:46:23.986Z,3.9
2022-10-26T08:51:34.083Z,6.7
2022-10-26T08:56:50.086Z,5.9
2022-10-26T09:01:58.661Z,5.6
2022-10-26T09:07:09.983Z,4.4
2022-10-26T09:23:05.606Z,5.1
2022-10-26T09:28:17.106Z,4.9
2022-10-26T09:33:30.568Z,6.7
2022-10-26T09:38:42.284Z,4.1
2022-10-26T09:43:54.964Z,6
2022-10-26T09:49:06.922Z,4.8
2022-10-26T09:54:19.002Z,6.6
2022-10-26T09:59:31.075Z,3.2
2022-10-26T10:04:43.270Z,7.8
2022-10-26T10:09:59.378Z,4.3
2022-10-26T10:15:12.038Z,8.1
2022-10-26T10:20:23.643Z,6.2
2022-10-26T10:25:36.196Z,7.4
2022-10-26T10:30:50.802Z,7.4
2022-10-26T10:36:06.717Z,3.9
2022-10-26T10:46:41.484Z,3.2
2022-10-26T10:57:26.577Z,3.5
2022-10-26T11:02:36.321Z,6.8
2022-10-26T11:07:53.992Z,3.8
2022-10-26T11:23:50.354Z,4
2022-10-26T11:34:33.495Z,5.4
2022-10-26T11:39:42.537Z,4.1
2022-10-26T11:55:35.114Z,6.6
2022-10-26T12:11:29.429Z,5.8
2022-10-26T12:22:04.058Z,8.5
2022-10-26T12:27:18.620Z,12
2022-10-26T12:43:15.087Z,11.4
2022-10-26T12:48:39.828Z,8
2022-10-26T13:04:28.005Z,5.6
2022-10-26T13:09:44.864Z,8.7
2022-10-26T13:14:57.936Z,9.1
2022-10-26T13:20:10.074Z,7.3
2022-10-26T13:25:22.947Z,4.5
2022-10-26T13:35:59.857Z,11.5
2022-10-26T13:46:37.744Z,4.6
2022-10-26T13:51:54.097Z,11.1
2022-10-26T13:57:11.179Z,8
2022-10-26T14:07:43.355Z,7.7
2022-10-26T14:23:53.165Z,13.9
2022-10-26T14:29:09.659Z,8
2022-10-26T14:34:21.318Z,9.3
2022-10-26T14:45:01.441Z,6.2
2022-10-26T14:50:17.731Z,9.4
2022-10-26T14:55:29.300Z,6.5
2022-10-26T15:11:36.440Z,9.2
2022-10-26T15:16:50.646Z,8
2022-10-26T15:21:56.358Z,7.9
2022-10-26T15:37:59.719Z,4.5
2022-10-26T15:53:54.429Z,9.9
2022-10-26T15:59:05.740Z,13
2022-10-26T16:04:21.455Z,9.4
2022-10-26T16:20:15.539Z,10.9
2022-10-26T16:31:00.486Z,12
2022-10-26T16:36:07.334Z,7.2
2022-10-26T16:41:22.663Z,21
2022-10-26T16:46:35.105Z,10.2
2022-10-26T17:02:30.730Z,20.7
2022-10-26T17:07:45.499Z,16.1
2022-10-26T17:13:27.603Z,16.6
2022-10-26T17:23:53.770Z,19.7
2022-10-26T17:29:04.740Z,17.8
2022-10-26T17:34:21.118Z,14.5
2022-10-26T17:44:56.260Z,16.4
2022-10-26T17:50:07.673Z,13.6
2022-10-26T18:00:38.377Z,12.4
2022-10-26T18:05:51.286Z,19.3
2022-10-26T18:11:06.338Z,13
2022-10-26T18:16:21.466Z,16.4
2022-10-26T18:21:38.019Z,10.2
2022-10-26T18:26:50.319Z,15.2
2022-10-26T18:37:27.970Z,19
2022-10-26T18:42:38.596Z,24.4
2022-10-26T18:47:58.337Z,30.5
2022-10-26T18:53:08.674Z,16.5
2022-10-26T18:58:21.247Z,23.9
2022-10-26T19:03:33.190Z,24.8
2022-10-26T19:08:45.406Z,17.8
2022-10-26T19:13:57.601Z,14.9
2022-10-26T19:19:09.452Z,14.1
2022-10-26T19:24:21.690Z,14.9
2022-10-26T19:29:31.971Z,15.8
2022-10-26T19:45:25.668Z,15.5
2022-10-26T19:50:36.723Z,10.8
2022-10-26T19:55:50.998Z,16
2022-10-26T20:11:46.840Z,15.7
2022-10-26T20:16:59.394Z,16.6
2022-10-26T20:22:11.025Z,16.5
2022-10-26T20:27:23.363Z,13.5
2022-10-26T20:32:35.067Z,19.8
2022-10-26T20:37:47.400Z,15.5
2022-10-26T20:48:18.870Z,15.4
2022-10-26T20:53:29.867Z,12.3
2022-10-26T20:58:45.719Z,16.6
2022-10-26T21:14:44.263Z,11.5
2022-10-26T21:19:51.169Z,8
2022-10-26T21:25:07.151Z,15.5
2022-10-26T21:35:45.762Z,9.5
2022-10-26T21:41:06.347Z,11.6
2022-10-26T21:46:07.734Z,11.3
2022-10-26T21:51:19.819Z,18.6
2022-10-26T21:56:31.506Z,10.8
2022-10-26T22:01:46.150Z,14
2022-10-26T22:12:18.096Z,12.1
2022-10-26T22:17:30.196Z,10.3
2022-10-26T22:22:41.824Z,12.3
2022-10-26T22:33:15.330Z,13.5
2022-10-26T22:38:25.512Z,12
2022-10-26T22:43:37.517Z,13.8
2022-10-26T22:54:10.903Z,8.1
2022-10-26T22:59:28.412Z,13.4
2022-10-26T23:04:41.141Z,12.4
2022-10-26T23:09:53.067Z,15.3
2022-10-26T23:20:30.860Z,9.2
2022-10-26T23:31:09.071Z,8.8
2022-10-26T23:36:16.377Z,9.3
2022-10-26T23:41:29.144Z,10
2022-10-26T23:51:59.278Z,19.7
2022-10-26T23:57:11.731Z,14.2
